createdAt,value
2019-02-06T00:01:40.595Z,99827.88
2019-02-06T00:04:09.224Z,99827.92
2019-02-06T00:06:37.856Z,99818.56
2019-02-06T00:09:10.858Z,99817.69
2019-02-06T00:11:39.596Z,99811.67
2019-02-06T00:14:08.268Z,99808.61
2019-02-06T00:16:37.056Z,99803.89
2019-02-06T00:19:05.770Z,99792.95
2019-02-06T00:21:34.399Z,99789.88
2019-02-06T00:24:03.106Z,99784.28
2019-02-06T00:26:31.785Z,99777.87
2019-02-06T00:29:00.464Z,99786.55
2019-02-06T00:31:29.612Z,99783.64
2019-02-06T00:33:58.291Z,99787.07
2019-02-06T00:36:26.926Z,99796.59
2019-02-06T00:38:55.609Z,99791.61
2019-02-06T00:41:24.239Z,99789.35
2019-02-06T00:43:52.903Z,99792.30
2019-02-06T00:46:21.592Z,99793.27
2019-02-06T00:48:50.264Z,99788.92
2019-02-06T00:51:22.056Z,99787.98
2019-02-06T00:53:50.602Z,99789.77
2019-02-06T00:56:19.217Z,99788.46
2019-02-06T00:58:47.788Z,99776.34
2019-02-06T01:01:16.533Z,99761.97
2019-02-06T01:03:45.165Z,99762.50
2019-02-06T01:06:13.839Z,99775.93
2019-02-06T01:08:42.839Z,99776.41
2019-02-06T01:11:11.442Z,99774.34
2019-02-06T01:13:40.062Z,99779.02
2019-02-06T01:16:08.832Z,99766.05
2019-02-06T01:18:37.323Z,99754.39
2019-02-06T01:21:05.998Z,99763.41
2019-02-06T01:23:34.624Z,99774.30
2019-02-06T01:26:03.554Z,99775.20
2019-02-06T01:28:32.167Z,99776.41
2019-02-06T01:31:03.910Z,99771.64
2019-02-06T01:33:32.469Z,99775.05
2019-02-06T01:36:01.106Z,99773.34
2019-02-06T01:38:29.686Z,99761.70
2019-02-06T01:40:58.226Z,99754.80
2019-02-06T01:43:26.907Z,99745.27
2019-02-06T01:45:55.540Z,99737.06
2019-02-06T01:48:24.219Z,99734.91
2019-02-06T01:50:52.850Z,99728.99
2019-02-06T01:53:21.598Z,99740.56
2019-02-06T01:55:50.279Z,99736.70
2019-02-06T01:58:19.354Z,99730.23
2019-02-06T02:00:47.978Z,99699.33
2019-02-06T02:03:16.610Z,99689.05
2019-02-06T02:05:45.278Z,99692.47
2019-02-06T02:08:13.920Z,99692.06
2019-02-06T02:10:42.768Z,99706.77
2019-02-06T02:13:11.378Z,99710.26
2019-02-06T02:15:40.156Z,99702.05
2019-02-06T02:18:08.837Z,99695.95
2019-02-06T02:20:37.465Z,99695.06
2019-02-06T02:23:06.088Z,99704.16
2019-02-06T02:25:34.699Z,99701.05
2019-02-06T02:28:03.408Z,99708.45
2019-02-06T02:30:43.014Z,99698.98
2019-02-06T02:33:11.573Z,99695.84
2019-02-06T02:35:40.250Z,99688.59
2019-02-06T02:38:08.855Z,99695.04
2019-02-06T02:40:37.481Z,99678.20
2019-02-06T02:43:06.145Z,99674.66
2019-02-06T02:45:34.796Z,99657.25
2019-02-06T02:48:03.418Z,99644.86
2019-02-06T02:50:32.051Z,99640.55
2019-02-06T02:53:00.711Z,99637.58
2019-02-06T02:55:29.333Z,99637.58
2019-02-06T02:57:57.998Z,99641.09
2019-02-06T03:00:28.445Z,99651.98
2019-02-06T03:03:01.746Z,99657.13
2019-02-06T03:05:31.950Z,99652.25
2019-02-06T03:08:00.647Z,99659.72
2019-02-06T03:10:29.292Z,99650.65
2019-02-06T03:12:57.927Z,99648.50
2019-02-06T03:15:26.608Z,99654.58
2019-02-06T03:17:55.230Z,99648.05
2019-02-06T03:20:23.913Z,99640.34
2019-02-06T03:22:52.558Z,99647.70
2019-02-06T03:25:21.227Z,99636.88
2019-02-06T03:27:49.851Z,99639.41
2019-02-06T03:30:19.863Z,99628.67
2019-02-06T03:32:48.702Z,99619.25
2019-02-06T03:35:19.077Z,99622.30
2019-02-06T03:37:47.705Z,99624.04
2019-02-06T03:40:18.362Z,99636.11
2019-02-06T03:42:47.294Z,99644.31
2019-02-06T03:45:16.285Z,99635.60
2019-02-06T03:47:44.958Z,99632.59
2019-02-06T03:50:16.461Z,99625.66
2019-02-06T03:52:45.098Z,99627.37
2019-02-06T03:55:14.261Z,99632.12
2019-02-06T03:57:42.925Z,99629.91
2019-02-06T04:00:16.540Z,99621.28
2019-02-06T04:02:45.175Z,99619.97
2019-02-06T04:05:14.109Z,99614.80
2019-02-06T04:07:42.806Z,99609.64
2019-02-06T04:10:16.471Z,99605.73
2019-02-06T04:12:45.034Z,99613.06
2019-02-06T04:15:14.646Z,99624.77
2019-02-06T04:17:43.502Z,99630.40
2019-02-06T04:20:14.457Z,99617.83
2019-02-06T04:22:43.091Z,99626.09
2019-02-06T04:25:13.809Z,99630.44
2019-02-06T04:27:42.485Z,99643.78
2019-02-06T04:30:17.023Z,99647.68
2019-02-06T04:32:45.763Z,99636.88
2019-02-06T04:35:15.640Z,99634.23
2019-02-06T04:37:44.670Z,99639.86
2019-02-06T04:40:21.182Z,99638.16
2019-02-06T04:42:50.124Z,99638.59
2019-02-06T04:45:19.835Z,99644.21
2019-02-06T04:47:48.516Z,99638.61
2019-02-06T04:50:18.177Z,99639.89
2019-02-06T04:52:46.951Z,99651.47
2019-02-06T04:55:18.778Z,99665.30
2019-02-06T04:57:47.828Z,99659.66
2019-02-06T05:00:25.131Z,99665.70
2019-02-06T05:02:53.804Z,99670.48
2019-02-06T05:05:25.267Z,99683.02
2019-02-06T05:07:53.906Z,99691.23
2019-02-06T05:10:22.562Z,99694.31
2019-02-06T05:12:51.189Z,99698.69
2019-02-06T05:15:19.974Z,99701.69
2019-02-06T05:17:48.619Z,99686.93
2019-02-06T05:20:25.847Z,99680.50
2019-02-06T05:22:57.238Z,99670.56
2019-02-06T05:25:26.199Z,99670.11
2019-02-06T05:27:54.852Z,99675.69
2019-02-06T05:30:23.540Z,99693.00
2019-02-06T05:32:52.188Z,99708.06
2019-02-06T05:35:20.862Z,99720.13
2019-02-06T05:37:49.505Z,99714.53
2019-02-06T05:40:18.256Z,99716.20
2019-02-06T05:42:47.171Z,99724.85
2019-02-06T05:45:16.415Z,99728.30
2019-02-06T05:47:44.990Z,99730.51
2019-02-06T05:50:18.562Z,99740.44
2019-02-06T05:52:48.108Z,99750.39
2019-02-06T05:55:18.390Z,99745.62
2019-02-06T05:57:47.965Z,99734.41
2019-02-06T06:00:26.169Z,99727.54
2019-02-06T06:02:57.500Z,99732.29
2019-02-06T06:05:26.269Z,99738.78
2019-02-06T06:07:55.262Z,99742.69
2019-02-06T06:10:24.481Z,99749.58
2019-02-06T06:12:55.846Z,99756.06
2019-02-06T06:15:24.613Z,99755.64
2019-02-06T06:17:53.404Z,99761.66
2019-02-06T06:20:22.283Z,99761.21
2019-02-06T06:22:53.553Z,99761.24
2019-02-06T06:25:22.505Z,99765.13
2019-02-06T06:27:51.194Z,99773.30
2019-02-06T06:30:21.411Z,99771.57
2019-02-06T06:32:50.108Z,99774.61
2019-02-06T06:35:18.979Z,99778.03
2019-02-06T06:37:58.831Z,99780.17
2019-02-06T06:40:27.742Z,99777.16
2019-02-06T06:42:56.589Z,99775.85
2019-02-06T06:45:25.876Z,99771.55
2019-02-06T06:47:54.652Z,99774.58
2019-02-06T06:50:25.152Z,99765.52
2019-02-06T06:52:58.041Z,99762.92
2019-02-06T06:55:26.965Z,99752.14
2019-02-06T06:57:55.609Z,99762.08
2019-02-06T07:00:26.436Z,99754.67
2019-02-06T07:02:55.029Z,99748.55
2019-02-06T07:05:23.801Z,99748.86
2019-02-06T07:07:54.042Z,99747.87
2019-02-06T07:10:23.017Z,99752.41
2019-02-06T07:12:51.745Z,99766.27
2019-02-06T07:15:22.722Z,99775.82
2019-02-06T07:17:51.513Z,99789.60
2019-02-06T07:20:20.658Z,99816.53
2019-02-06T07:22:49.493Z,99817.37
2019-02-06T07:25:20.103Z,99813.31
2019-02-06T07:27:51.792Z,99814.56
2019-02-06T07:30:26.613Z,99808.66
2019-02-06T07:32:58.727Z,99808.97
2019-02-06T07:35:27.414Z,99807.25
2019-02-06T07:37:56.725Z,99803.66
2019-02-06T07:40:26.375Z,99815.20
2019-02-06T07:42:55.066Z,99812.25
2019-02-06T07:45:24.031Z,99807.00
2019-02-06T07:47:52.906Z,99809.45
2019-02-06T07:50:37.482Z,99814.27
2019-02-06T07:53:06.124Z,99807.54
2019-02-06T07:55:34.965Z,99805.11
2019-02-06T07:58:03.703Z,99805.23
2019-02-06T08:00:32.475Z,99798.73
2019-02-06T08:03:01.259Z,99797.56
2019-02-06T08:05:30.087Z,99797.63
2019-02-06T08:07:59.471Z,99795.44
2019-02-06T08:10:30.305Z,99797.94
2019-02-06T08:12:58.930Z,99799.64
2019-02-06T08:15:27.685Z,99812.77
2019-02-06T08:17:56.695Z,99807.68
2019-02-06T08:20:25.816Z,99820.09
2019-02-06T08:23:00.848Z,99825.16
2019-02-06T08:25:29.670Z,99825.87
2019-02-06T08:27:58.483Z,99825.02
2019-02-06T08:30:33.113Z,99828.10
2019-02-06T08:33:04.721Z,99826.66
2019-02-06T08:35:33.844Z,99833.95
2019-02-06T08:38:02.511Z,99845.45
2019-02-06T08:40:32.346Z,99856.13
2019-02-06T08:43:00.957Z,99850.23
2019-02-06T08:45:29.737Z,99854.16
2019-02-06T08:47:58.675Z,99861.33
2019-02-06T08:50:27.984Z,99860.05
2019-02-06T08:52:56.880Z,99861.47
2019-02-06T08:55:32.898Z,99856.30
2019-02-06T08:58:02.104Z,99862.49
2019-02-06T09:00:33.399Z,99870.36
2019-02-06T09:03:09.143Z,99878.59
2019-02-06T09:05:37.865Z,99880.31
2019-02-06T09:08:06.815Z,99883.99
2019-02-06T09:10:35.694Z,99888.78
2019-02-06T09:13:05.231Z,99893.02
2019-02-06T09:15:33.877Z,99890.00
2019-02-06T09:18:02.662Z,99885.69
2019-02-06T09:20:31.514Z,99889.95
2019-02-06T09:23:00.372Z,99887.73
2019-02-06T09:25:31.940Z,99903.71
2019-02-06T09:28:00.932Z,99895.13
2019-02-06T09:30:36.204Z,99886.83
2019-02-06T09:33:08.442Z,99880.55
2019-02-06T09:35:37.209Z,99893.61
2019-02-06T09:38:05.966Z,99894.81
2019-02-06T09:40:36.476Z,99905.59
2019-02-06T09:43:11.385Z,99910.42
2019-02-06T09:45:40.184Z,99920.50
2019-02-06T09:48:10.425Z,99919.20
2019-02-06T09:50:40.677Z,99922.75
2019-02-06T09:53:09.448Z,99925.87
2019-02-06T09:55:38.124Z,99925.07
2019-02-06T09:58:06.965Z,99932.81
2019-02-06T10:00:37.324Z,99936.23
2019-02-06T10:03:06.871Z,99944.24
2019-02-06T10:05:38.370Z,99947.63
2019-02-06T10:08:07.109Z,99949.14
2019-02-06T10:10:35.735Z,99941.02
2019-02-06T10:13:04.520Z,99943.50
2019-02-06T10:15:37.586Z,99937.78
2019-02-06T10:18:06.721Z,99937.68
2019-02-06T10:20:40.814Z,99939.47
2019-02-06T10:23:09.542Z,99944.20
2019-02-06T10:25:38.858Z,99935.42
2019-02-06T10:28:07.745Z,99941.03
2019-02-06T10:30:42.109Z,99942.85
2019-02-06T10:33:10.812Z,99938.23
2019-02-06T10:35:39.555Z,99932.53
2019-02-06T10:38:08.557Z,99936.55
2019-02-06T10:40:40.027Z,99937.43
2019-02-06T10:43:11.819Z,99942.51
2019-02-06T10:45:40.717Z,99931.25
2019-02-06T10:48:09.414Z,99927.83
2019-02-06T10:50:44.079Z,99929.47
2019-02-06T10:53:12.811Z,99924.25
2019-02-06T10:55:42.638Z,99917.09
2019-02-06T10:58:11.992Z,99922.20
2019-02-06T11:00:52.378Z,99915.64
2019-02-06T11:03:21.471Z,99913.36
2019-02-06T11:06:02.634Z,99907.49
2019-02-06T11:08:31.299Z,99911.30
2019-02-06T11:11:04.549Z,99915.77
2019-02-06T11:13:33.514Z,99912.14
2019-02-06T11:16:03.482Z,99911.92
2019-02-06T11:18:32.337Z,99912.29
2019-02-06T11:21:04.073Z,99913.28
2019-02-06T11:23:35.656Z,99911.16
2019-02-06T11:26:05.531Z,99912.06
2019-02-06T11:28:34.351Z,99909.98
2019-02-06T11:31:05.854Z,99906.89
2019-02-06T11:33:34.649Z,99909.05
2019-02-06T11:36:04.879Z,99909.84
2019-02-06T11:38:34.307Z,99913.43
2019-02-06T11:41:03.219Z,99913.50
2019-02-06T11:43:33.737Z,99918.26
2019-02-06T11:46:02.532Z,99915.58
2019-02-06T11:48:32.433Z,99920.66
2019-02-06T11:51:01.183Z,99925.17
2019-02-06T11:53:33.684Z,99923.34
2019-02-06T11:56:02.792Z,99927.39
2019-02-06T11:58:31.571Z,99922.66
2019-02-06T12:01:02.052Z,99925.53
2019-02-06T12:03:34.092Z,99928.54
2019-02-06T12:06:10.719Z,99927.72
2019-02-06T12:08:40.782Z,99926.07
2019-02-06T12:11:12.872Z,99925.08
2019-02-06T12:13:41.558Z,99925.51
2019-02-06T12:16:10.513Z,99926.33
2019-02-06T12:18:39.266Z,99915.83
2019-02-06T12:21:13.217Z,99915.14
2019-02-06T12:23:47.837Z,99910.45
2019-02-06T12:26:17.274Z,99912.57
2019-02-06T12:28:46.770Z,99912.27
2019-02-06T12:31:15.806Z,99925.28
2019-02-06T12:33:45.522Z,99918.72
2019-02-06T12:36:15.819Z,99915.23
2019-02-06T12:38:53.452Z,99917.34
2019-02-06T12:41:19.857Z,99921.73
2019-02-06T12:43:48.757Z,99922.12
2019-02-06T12:46:17.562Z,99919.38
2019-02-06T12:48:46.729Z,99927.56
2019-02-06T12:51:18.606Z,99931.78
2019-02-06T12:53:47.523Z,99923.31
2019-02-06T12:56:16.323Z,99926.91
2019-02-06T12:58:46.514Z,99933.45
2019-02-06T13:01:16.399Z,99933.01
2019-02-06T13:03:45.004Z,99935.16
2019-02-06T13:06:19.880Z,99931.27
2019-02-06T13:08:51.264Z,99930.81
2019-02-06T13:11:19.861Z,99933.89
2019-02-06T13:13:48.503Z,99933.92
2019-02-06T13:16:17.289Z,99933.53
2019-02-06T13:18:50.295Z,99927.88
2019-02-06T13:21:20.790Z,99928.77
2019-02-06T13:23:49.697Z,99929.22
2019-02-06T13:26:19.039Z,99924.03
2019-02-06T13:28:50.503Z,99921.38
2019-02-06T13:31:22.151Z,99926.13
2019-02-06T13:33:56.825Z,99920.38
2019-02-06T13:36:25.469Z,99913.63
2019-02-06T13:38:57.386Z,99914.89
2019-02-06T13:41:30.353Z,99914.45
2019-02-06T13:43:59.020Z,99914.52
2019-02-06T13:46:27.829Z,99908.54
2019-02-06T13:48:58.702Z,99908.57
2019-02-06T13:51:29.050Z,99908.55
2019-02-06T13:54:00.504Z,99911.96
2019-02-06T13:56:32.064Z,99912.39
2019-02-06T13:59:07.384Z,99911.96
2019-02-06T14:01:36.303Z,99912.45
2019-02-06T14:04:05.307Z,99912.91
2019-02-06T14:06:36.707Z,99910.35
2019-02-06T14:09:08.424Z,99909.91
2019-02-06T14:11:37.039Z,99908.19
2019-02-06T14:14:05.672Z,99904.70
2019-02-06T14:16:43.189Z,99913.77
2019-02-06T14:19:11.819Z,99911.95
2019-02-06T14:21:43.441Z,99913.20
2019-02-06T14:24:18.015Z,99903.26
2019-02-06T14:26:52.296Z,99912.38
2019-02-06T14:29:23.894Z,99912.35
2019-02-06T14:32:15.747Z,99914.08
2019-02-06T14:35:05.686Z,99921.86
2019-02-06T14:37:40.290Z,99921.12
2019-02-06T14:40:17.770Z,99923.31
2019-02-06T14:43:09.164Z,99926.34
2019-02-06T14:45:55.295Z,99929.78
2019-02-06T14:48:43.261Z,99943.65
2019-02-06T14:51:17.804Z,99939.73
2019-02-06T14:54:01.592Z,99936.31
2019-02-06T14:56:45.033Z,99934.59
2019-02-06T14:59:22.507Z,99939.37
2019-02-06T15:02:06.196Z,99943.72
2019-02-06T15:05:00.341Z,99946.31
2019-02-06T15:07:34.691Z,99935.95
2019-02-06T15:10:31.854Z,99943.73
2019-02-06T15:13:06.376Z,99945.03
2019-02-06T15:15:59.354Z,99943.72
2019-02-06T15:18:42.828Z,99941.13
2019-02-06T15:21:32.596Z,99947.19
2019-02-06T15:24:19.140Z,99941.55
2019-02-06T15:26:53.468Z,99942.88
2019-02-06T15:29:43.315Z,99942.86
2019-02-06T15:32:28.382Z,99948.48
2019-02-06T15:35:11.770Z,99945.45
2019-02-06T15:38:20.932Z,99946.74
2019-02-06T15:41:07.841Z,99954.95
2019-02-06T15:43:58.020Z,99949.38
2019-02-06T15:46:44.466Z,99944.17
2019-02-06T15:49:40.289Z,99951.08
2019-02-06T15:52:26.801Z,99946.33
2019-02-06T15:55:33.168Z,99950.22
2019-02-06T15:58:31.889Z,99957.98
2019-02-06T16:01:24.472Z,99957.11
2019-02-06T16:04:15.412Z,99958.44
2019-02-06T16:06:53.797Z,99954.55
2019-02-06T16:09:44.497Z,99960.56
2019-02-06T16:12:24.495Z,99968.36
2019-02-06T16:15:08.120Z,99965.77
2019-02-06T16:17:46.614Z,99971.80
2019-02-06T16:20:33.163Z,99972.66
2019-02-06T16:23:30.679Z,99978.73
2019-02-06T16:26:19.024Z,99984.75
2019-02-06T16:29:24.197Z,99990.38
2019-02-06T16:32:18.800Z,99987.34
2019-02-06T16:35:23.822Z,99994.24
2019-02-06T16:38:27.021Z,100001.61
2019-02-06T16:41:13.587Z,100003.31
2019-02-06T16:44:04.866Z,100005.48
2019-02-06T16:46:51.877Z,100007.63
2019-02-06T16:49:38.632Z,100010.64
2019-02-06T16:52:16.268Z,100015.81
2019-02-06T16:54:57.161Z,100014.52
2019-02-06T16:58:03.589Z,100021.43
2019-02-06T17:00:38.241Z,100024.86
2019-02-06T17:03:10.500Z,100027.89
2019-02-06T17:06:07.531Z,100026.61
2019-02-06T17:08:39.118Z,100028.34
2019-02-06T17:11:16.265Z,100029.22
2019-02-06T17:14:04.405Z,100023.58
2019-02-06T17:16:36.180Z,100026.57
2019-02-06T17:19:22.860Z,100031.77
2019-02-06T17:22:16.495Z,100036.56
2019-02-06T17:24:51.086Z,100044.75
2019-02-06T17:27:39.890Z,100043.40
2019-02-06T17:30:31.192Z,100044.69
2019-02-06T17:33:14.836Z,100040.41
2019-02-06T17:35:46.514Z,100045.14
2019-02-06T17:38:21.296Z,100039.52
2019-02-06T17:41:15.888Z,100044.26
2019-02-06T17:44:06.552Z,100045.55
2019-02-06T17:46:40.763Z,100043.86
2019-02-06T17:49:17.989Z,100051.14
2019-02-06T17:51:58.560Z,100053.30
2019-02-06T17:54:33.012Z,100056.74
2019-02-06T17:57:04.380Z,100059.34
2019-02-06T17:59:33.088Z,100050.27
2019-02-06T18:02:07.910Z,100051.55
2019-02-06T18:04:36.878Z,100058.45
2019-02-06T18:07:12.646Z,100055.91
2019-02-06T18:09:41.281Z,100057.61
2019-02-06T18:12:10.072Z,100060.58
2019-02-06T18:14:38.763Z,100064.91
2019-02-06T18:17:08.152Z,100065.78
2019-02-06T18:19:43.924Z,100065.36
2019-02-06T18:22:22.460Z,100067.54
2019-02-06T18:24:50.162Z,100070.97
2019-02-06T18:27:18.786Z,100072.27
2019-02-06T18:29:47.477Z,100075.23
2019-02-06T18:32:16.592Z,100077.86
2019-02-06T18:34:45.220Z,100081.35
2019-02-06T18:37:13.883Z,100081.73
2019-02-06T18:39:42.779Z,100074.03
2019-02-06T18:42:11.633Z,100079.70
2019-02-06T18:44:40.578Z,100081.86
2019-02-06T18:47:09.213Z,100094.37
2019-02-06T18:49:37.886Z,100089.17
2019-02-06T18:52:06.937Z,100092.18
2019-02-06T18:54:36.247Z,100095.22
2019-02-06T18:57:07.597Z,100102.55
2019-02-06T18:59:36.237Z,100103.39
2019-02-06T19:02:09.022Z,100104.23
2019-02-06T19:04:37.655Z,100109.86
2019-02-06T19:07:12.912Z,100108.13
2019-02-06T19:09:44.892Z,100114.58
2019-02-06T19:12:13.585Z,100112.43
2019-02-06T19:14:45.070Z,100116.30
2019-02-06T19:17:15.184Z,100111.58
2019-02-06T19:19:46.493Z,100121.05
2019-02-06T19:22:16.979Z,100115.44
2019-02-06T19:24:45.923Z,100119.36
2019-02-06T19:27:20.132Z,100121.05
2019-02-06T19:29:53.334Z,100123.23
2019-02-06T19:32:21.874Z,100131.00
2019-02-06T19:34:56.134Z,100131.84
2019-02-06T19:37:24.809Z,100137.83
2019-02-06T19:39:56.431Z,100133.55
2019-02-06T19:42:25.232Z,100145.67
2019-02-06T19:44:56.479Z,100142.63
2019-02-06T19:47:28.597Z,100146.50
2019-02-06T19:49:55.925Z,100146.52
2019-02-06T19:52:24.560Z,100150.02
2019-02-06T19:54:53.640Z,100146.19
2019-02-06T19:57:22.390Z,100151.78
2019-02-06T19:59:51.021Z,100159.19
2019-02-06T20:02:19.695Z,100150.11
2019-02-06T20:04:50.082Z,100154.41
2019-02-06T20:07:18.720Z,100161.33
2019-02-06T20:09:47.420Z,100159.17
2019-02-06T20:12:16.028Z,100157.45
2019-02-06T20:14:45.017Z,100159.59
2019-02-06T20:17:14.276Z,100166.45
2019-02-06T20:19:42.953Z,100166.84
2019-02-06T20:22:11.602Z,100170.32
2019-02-06T20:24:46.632Z,100165.99
2019-02-06T20:27:15.355Z,100172.45
2019-02-06T20:29:44.153Z,100178.48
2019-02-06T20:32:15.776Z,100180.20
2019-02-06T20:34:44.438Z,100176.36
2019-02-06T20:37:13.022Z,100184.08
2019-02-06T20:39:44.686Z,100181.11
2019-02-06T20:42:13.382Z,100176.34
2019-02-06T20:44:45.082Z,100182.32
2019-02-06T20:47:13.887Z,100178.05
2019-02-06T20:49:42.584Z,100181.89
2019-02-06T20:52:11.134Z,100180.56
2019-02-06T20:54:41.316Z,100171.51
2019-02-06T20:57:15.661Z,100180.49
2019-02-06T20:59:42.895Z,100180.53
2019-02-06T21:02:17.674Z,100181.39
2019-02-06T21:04:47.130Z,100181.83
2019-02-06T21:07:15.869Z,100177.44
2019-02-06T21:09:44.488Z,100174.83
2019-02-06T21:12:13.168Z,100173.98
2019-02-06T21:14:41.735Z,100169.63
2019-02-06T21:17:10.544Z,100177.86
2019-02-06T21:19:39.105Z,100182.63
2019-02-06T21:22:10.724Z,100183.04
2019-02-06T21:24:39.347Z,100178.72
2019-02-06T21:27:08.400Z,100175.30
2019-02-06T21:29:37.152Z,100180.06
2019-02-06T21:32:05.935Z,100180.53
2019-02-06T21:34:34.791Z,100177.52
2019-02-06T21:37:06.157Z,100176.73
2019-02-06T21:39:34.841Z,100176.31
2019-02-06T21:42:03.466Z,100165.05
2019-02-06T21:44:32.096Z,100169.74
2019-02-06T21:47:05.436Z,100168.06
2019-02-06T21:49:34.019Z,100180.95
2019-02-06T21:52:07.568Z,100177.07
2019-02-06T21:54:36.303Z,100177.10
2019-02-06T21:57:04.978Z,100177.55
2019-02-06T21:59:33.619Z,100184.89
2019-02-06T22:02:02.286Z,100183.15
2019-02-06T22:04:30.888Z,100187.51
2019-02-06T22:06:59.441Z,100192.20
2019-02-06T22:09:28.530Z,100189.20
2019-02-06T22:11:57.102Z,100193.94
2019-02-06T22:14:28.830Z,100191.78
2019-02-06T22:17:00.484Z,100193.09
2019-02-06T22:19:28.162Z,100187.05
2019-02-06T22:21:56.768Z,100189.11
2019-02-06T22:24:25.328Z,100185.61
2019-02-06T22:26:53.990Z,100183.44
2019-02-06T22:29:22.604Z,100185.14
2019-02-06T22:31:54.089Z,100178.99
2019-02-06T22:34:22.891Z,100186.25
2019-02-06T22:36:51.406Z,100184.51
2019-02-06T22:39:22.762Z,100177.17
2019-02-06T22:41:51.423Z,100179.81
2019-02-06T22:44:20.068Z,100180.75
2019-02-06T22:46:48.724Z,100176.44
2019-02-06T22:49:17.286Z,100174.40
2019-02-06T22:51:48.874Z,100176.50
2019-02-06T22:54:20.055Z,100174.41
2019-02-06T22:56:48.596Z,100164.11
2019-02-06T22:59:17.138Z,100161.03
2019-02-06T23:01:46.649Z,100166.64
2019-02-06T23:04:15.326Z,100157.98
2019-02-06T23:06:43.964Z,100158.91
2019-02-06T23:09:12.767Z,100152.45
2019-02-06T23:11:41.442Z,100145.11
2019-02-06T23:14:17.207Z,100139.53
2019-02-06T23:16:40.527Z,100145.53
2019-02-06T23:19:09.132Z,100146.80
2019-02-06T23:21:37.751Z,100141.57
2019-02-06T23:24:06.547Z,100137.30
2019-02-06T23:26:35.181Z,100139.44
2019-02-06T23:29:03.862Z,100128.69
2019-02-06T23:31:32.572Z,100131.14
2019-02-06T23:34:04.254Z,100129.91
2019-02-06T23:36:32.874Z,100128.17
2019-02-06T23:39:01.551Z,100125.59
2019-02-06T23:41:30.202Z,100130.39
2019-02-06T23:43:58.848Z,100129.94
2019-02-06T23:46:27.490Z,100123.02
2019-02-06T23:48:56.268Z,100133.34
2019-02-06T23:51:24.872Z,100135.09
2019-02-06T23:53:53.432Z,100135.06
2019-02-06T23:56:22.116Z,100139.38
2019-02-06T23:58:50.779Z,100142.00
